createdAt,value
2023-11-17T00:01:37.860Z,18.57
2023-11-17T00:03:41.944Z,15.30
2023-11-17T00:05:45.143Z,18.10
2023-11-17T00:07:46.953Z,14.00
2023-11-17T00:09:49.712Z,17.97
2023-11-17T00:11:53.813Z,15.20
2023-11-17T00:13:57.819Z,15.07
2023-11-17T00:16:01.014Z,14.23
2023-11-17T00:18:03.855Z,13.33
2023-11-17T00:20:07.550Z,17.53
2023-11-17T00:22:11.167Z,17.60
2023-11-17T00:24:14.029Z,13.90
2023-11-17T00:26:16.763Z,11.13
2023-11-17T00:28:21.309Z,11.80
2023-11-17T00:30:24.392Z,13.20
2023-11-17T00:32:27.456Z,17.87
2023-11-17T00:34:30.252Z,12.50
2023-11-17T00:36:32.989Z,11.90
2023-11-17T00:38:37.480Z,11.73
2023-11-17T00:40:40.288Z,12.57
2023-11-17T00:42:43.037Z,12.13
2023-11-17T00:44:47.845Z,10.93
2023-11-17T00:46:49.960Z,10.30
2023-11-17T00:48:52.753Z,16.33
2023-11-17T00:50:56.480Z,10.67
2023-11-17T00:53:05.669Z,11.07
2023-11-17T00:55:08.987Z,12.33
2023-11-17T00:57:12.685Z,11.30
2023-11-17T00:59:14.818Z,11.23
2023-11-17T01:01:19.863Z,9.83
2023-11-17T01:03:22.746Z,10.13
2023-11-17T01:05:26.652Z,9.10
2023-11-17T01:07:30.462Z,11.60
2023-11-17T01:09:33.416Z,9.30
2023-11-17T01:11:36.341Z,8.23
2023-11-17T01:13:39.175Z,9.67
2023-11-17T01:15:42.028Z,9.63
2023-11-17T01:17:46.554Z,9.90
2023-11-17T01:19:49.291Z,8.30
2023-11-17T01:21:52.050Z,8.20
2023-11-17T01:23:54.762Z,7.80
2023-11-17T01:25:57.051Z,8.20
2023-11-17T01:28:00.266Z,7.00
2023-11-17T01:30:02.128Z,8.33
2023-11-17T01:32:05.194Z,11.83
2023-11-17T01:34:09.375Z,8.70
2023-11-17T01:36:14.730Z,7.87
2023-11-17T01:38:18.408Z,6.53
2023-11-17T01:40:21.126Z,7.63
2023-11-17T01:42:24.049Z,7.13
2023-11-17T01:44:27.808Z,6.97
2023-11-17T01:46:31.204Z,6.03
2023-11-17T01:48:35.842Z,6.67
2023-11-17T01:50:40.411Z,7.50
2023-11-17T01:52:44.238Z,8.10
2023-11-17T01:54:52.427Z,8.73
2023-11-17T01:56:55.901Z,9.07
2023-11-17T01:58:57.771Z,5.63
2023-11-17T02:01:02.084Z,7.93
2023-11-17T02:03:05.086Z,5.10
2023-11-17T02:05:08.866Z,8.57
2023-11-17T02:07:21.154Z,10.43
2023-11-17T02:09:47.890Z,7.00
2023-11-17T02:11:59.417Z,6.87
2023-11-17T02:14:08.903Z,8.83
2023-11-17T02:16:18.476Z,9.13
2023-11-17T02:18:23.622Z,6.93
2023-11-17T02:20:27.260Z,8.23
2023-11-17T02:22:31.735Z,5.77
2023-11-17T02:24:43.012Z,5.37
2023-11-17T02:26:53.618Z,6.50
2023-11-17T02:29:01.516Z,8.40
2023-11-17T02:31:16.224Z,7.53
2023-11-17T02:33:19.159Z,5.03
2023-11-17T02:35:29.839Z,6.30
2023-11-17T02:37:32.632Z,5.37
2023-11-17T02:39:39.522Z,3.80
2023-11-17T02:41:50.435Z,5.13
2023-11-17T02:43:53.989Z,7.83
2023-11-17T02:45:56.803Z,3.60
2023-11-17T02:48:00.413Z,4.30
2023-11-17T02:50:10.193Z,5.23
2023-11-17T02:52:18.749Z,6.03
2023-11-17T02:54:23.382Z,3.90
2023-11-17T02:56:26.508Z,4.87
2023-11-17T02:58:33.863Z,3.73
2023-11-17T03:00:36.705Z,4.27
2023-11-17T03:02:41.159Z,4.10
2023-11-17T03:04:45.463Z,4.20
2023-11-17T03:06:49.911Z,3.37
2023-11-17T03:08:52.647Z,6.97
2023-11-17T03:11:01.540Z,3.10
2023-11-17T03:13:04.340Z,6.23
2023-11-17T03:15:10.888Z,4.10
2023-11-17T03:17:13.669Z,5.83
2023-11-17T03:19:16.011Z,4.50
2023-11-17T03:21:20.575Z,4.60
2023-11-17T03:23:23.439Z,4.70
2023-11-17T03:25:26.816Z,3.93
2023-11-17T03:27:30.083Z,4.97
2023-11-17T03:29:33.236Z,7.43
2023-11-17T03:31:36.234Z,4.43
2023-11-17T03:33:39.031Z,6.17
2023-11-17T03:35:42.472Z,7.20
2023-11-17T03:37:47.678Z,7.93
2023-11-17T03:39:50.599Z,4.73
2023-11-17T03:41:53.802Z,7.43
2023-11-17T03:43:55.691Z,7.40
2023-11-17T03:46:01.788Z,3.87
2023-11-17T03:48:06.597Z,6.80
2023-11-17T03:50:14.437Z,4.40
2023-11-17T03:52:17.268Z,6.17
2023-11-17T03:54:22.574Z,5.33
2023-11-17T03:56:25.535Z,8.27
2023-11-17T03:58:28.873Z,4.57
2023-11-17T04:00:33.398Z,4.50
2023-11-17T04:02:36.362Z,7.47
2023-11-17T04:04:39.223Z,7.50
2023-11-17T04:06:42.021Z,6.30
2023-11-17T04:08:44.727Z,7.07
2023-11-17T04:10:47.926Z,6.60
2023-11-17T04:12:50.883Z,5.30
2023-11-17T04:14:53.592Z,8.73
2023-11-17T04:16:57.238Z,5.63
2023-11-17T04:18:59.085Z,5.13
2023-11-17T04:21:02.051Z,5.20
2023-11-17T04:23:05.163Z,7.73
2023-11-17T04:25:08.536Z,7.10
2023-11-17T04:27:13.154Z,5.63
2023-11-17T04:29:16.288Z,6.37
2023-11-17T04:31:19.621Z,9.50
2023-11-17T04:33:22.112Z,8.17
2023-11-17T04:35:24.868Z,6.33
2023-11-17T04:37:28.755Z,7.27
2023-11-17T04:39:32.411Z,5.73
2023-11-17T04:41:34.233Z,7.20
2023-11-17T04:43:38.261Z,6.03
2023-11-17T04:45:44.217Z,8.20
2023-11-17T04:47:47.445Z,7.07
2023-11-17T04:49:50.212Z,9.90
2023-11-17T04:51:53.829Z,10.63
2023-11-17T04:53:56.574Z,9.63
2023-11-17T04:55:59.342Z,8.70
2023-11-17T04:58:01.817Z,9.77
2023-11-17T05:00:07.567Z,7.83
2023-11-17T05:02:10.997Z,6.93
2023-11-17T05:04:14.177Z,7.27
2023-11-17T05:06:24.012Z,7.53
2023-11-17T05:08:29.189Z,7.00
2023-11-17T05:10:32.558Z,6.83
2023-11-17T05:12:40.167Z,8.27
2023-11-17T05:14:42.876Z,14.63
2023-11-17T05:16:47.020Z,9.53
2023-11-17T05:18:50.707Z,14.20
2023-11-17T05:20:53.707Z,10.27
2023-11-17T05:22:56.689Z,10.87
2023-11-17T05:25:00.023Z,13.97
2023-11-17T05:27:02.889Z,14.97
2023-11-17T05:29:06.201Z,16.07
2023-11-17T05:31:09.087Z,11.63
2023-11-17T05:33:18.975Z,11.23
2023-11-17T05:35:21.726Z,11.10
2023-11-17T05:37:24.002Z,12.07
2023-11-17T05:39:27.677Z,9.13
2023-11-17T05:41:30.468Z,11.93
2023-11-17T05:43:33.379Z,10.70
2023-11-17T05:45:36.346Z,15.23
2023-11-17T05:47:39.218Z,12.20
2023-11-17T05:49:46.180Z,12.40
2023-11-17T05:51:52.092Z,16.17
2023-11-17T05:53:55.368Z,10.77
2023-11-17T05:55:58.098Z,12.37
2023-11-17T05:58:01.229Z,15.60
2023-11-17T06:00:09.886Z,9.17
2023-11-17T06:02:15.672Z,13.47
2023-11-17T06:04:18.650Z,10.73
2023-11-17T06:06:24.589Z,9.57
2023-11-17T06:08:32.997Z,8.87
2023-11-17T06:10:36.025Z,9.23
2023-11-17T06:12:38.181Z,10.67
2023-11-17T06:14:42.375Z,12.93
2023-11-17T06:16:45.424Z,10.13
2023-11-17T06:18:48.442Z,15.37
2023-11-17T06:20:51.965Z,11.87
2023-11-17T06:22:56.222Z,14.50
2023-11-17T06:24:59.184Z,11.87
2023-11-17T06:27:02.193Z,12.07
2023-11-17T06:29:05.163Z,11.43
2023-11-17T06:31:08.390Z,12.90
2023-11-17T06:33:11.203Z,12.30
2023-11-17T06:35:15.058Z,13.50
2023-11-17T06:37:18.324Z,11.87
2023-11-17T06:39:24.477Z,17.70
2023-11-17T06:41:31.230Z,15.80
2023-11-17T06:43:33.029Z,14.17
2023-11-17T06:45:35.850Z,13.07
2023-11-17T06:47:38.948Z,16.30
2023-11-17T06:49:43.652Z,12.17
2023-11-17T06:51:49.149Z,12.17
2023-11-17T06:53:52.427Z,12.20
2023-11-17T06:55:57.062Z,13.10
2023-11-17T06:57:59.877Z,11.13
2023-11-17T07:00:02.955Z,13.47
2023-11-17T07:02:06.826Z,12.53
2023-11-17T07:04:13.487Z,14.90
2023-11-17T07:06:18.140Z,15.90
2023-11-17T07:08:20.953Z,14.20
2023-11-17T07:10:26.023Z,14.70
2023-11-17T07:12:30.433Z,15.43
2023-11-17T07:14:32.912Z,15.90
2023-11-17T07:16:43.769Z,17.83
2023-11-17T07:18:50.685Z,17.87
2023-11-17T07:20:54.725Z,16.77
2023-11-17T07:22:58.197Z,14.57
2023-11-17T07:25:01.708Z,19.43
2023-11-17T07:27:04.627Z,18.90
2023-11-17T07:29:09.534Z,17.23
2023-11-17T07:31:11.569Z,17.43
2023-11-17T07:33:17.760Z,21.43
2023-11-17T07:35:22.761Z,17.80
2023-11-17T07:37:25.770Z,16.40
2023-11-17T07:39:28.433Z,19.70
2023-11-17T07:41:31.467Z,18.67
2023-11-17T07:43:33.390Z,18.43
2023-11-17T07:45:38.493Z,19.40
2023-11-17T07:47:42.963Z,17.20
2023-11-17T07:49:46.858Z,20.23
2023-11-17T07:51:50.217Z,17.30
2023-11-17T07:53:53.528Z,18.17
2023-11-17T07:55:56.564Z,16.47
2023-11-17T07:57:59.571Z,19.57
2023-11-17T08:00:05.681Z,15.80
2023-11-17T08:02:12.305Z,15.20
2023-11-17T08:04:14.461Z,17.07
2023-11-17T08:06:17.657Z,19.67
2023-11-17T08:08:21.973Z,17.60
2023-11-17T08:10:25.510Z,19.40
2023-11-17T08:12:28.570Z,21.13
2023-11-17T08:14:31.637Z,19.70
2023-11-17T08:16:35.562Z,20.17
2023-11-17T08:18:40.122Z,17.67
2023-11-17T08:20:45.495Z,22.90
2023-11-17T08:22:47.678Z,22.10
2023-11-17T08:24:50.666Z,17.77
2023-11-17T08:26:54.316Z,17.40
2023-11-17T08:28:57.556Z,16.17
2023-11-17T08:31:00.827Z,17.20
2023-11-17T08:33:04.966Z,15.50
2023-11-17T08:35:12.238Z,14.57
2023-11-17T08:37:16.427Z,17.23
2023-11-17T08:39:26.806Z,14.00
2023-11-17T08:41:30.491Z,18.93
2023-11-17T08:43:33.475Z,16.87
2023-11-17T08:45:35.708Z,14.00
2023-11-17T08:47:39.328Z,13.93
2023-11-17T08:49:42.557Z,13.57
2023-11-17T08:51:48.269Z,15.83
2023-11-17T08:53:51.942Z,18.67
2023-11-17T08:55:55.400Z,16.37
2023-11-17T08:57:58.164Z,15.20
2023-11-17T09:00:00.447Z,12.23
2023-11-17T09:02:04.602Z,11.90
2023-11-17T09:04:08.356Z,13.30
2023-11-17T09:06:12.222Z,11.73
2023-11-17T09:08:17.748Z,14.13
2023-11-17T09:10:22.982Z,13.57
2023-11-17T09:12:26.738Z,13.77
2023-11-17T09:14:32.482Z,11.70
2023-11-17T09:16:43.504Z,11.87
2023-11-17T09:18:52.201Z,12.17
2023-11-17T09:20:56.120Z,11.50
2023-11-17T09:22:58.843Z,11.20
2023-11-17T09:25:02.966Z,14.83
2023-11-17T09:27:06.048Z,11.17
2023-11-17T09:29:08.886Z,10.70
2023-11-17T09:31:11.661Z,13.07
2023-11-17T09:33:14.683Z,10.87
2023-11-17T09:35:18.793Z,9.87
2023-11-17T09:37:21.777Z,9.57
2023-11-17T09:39:24.609Z,12.07
2023-11-17T09:41:29.324Z,15.70
2023-11-17T09:43:38.808Z,9.93
2023-11-17T09:45:45.376Z,9.57
2023-11-17T09:47:53.445Z,9.40
2023-11-17T09:49:58.004Z,9.60
2023-11-17T09:52:01.150Z,11.10
2023-11-17T09:54:05.500Z,10.97
2023-11-17T09:56:10.837Z,9.77
2023-11-17T09:58:15.102Z,10.20
2023-11-17T10:00:21.874Z,8.83
2023-11-17T10:02:24.546Z,8.13
2023-11-17T10:04:27.573Z,8.20
2023-11-17T10:06:32.089Z,9.93
2023-11-17T10:08:36.193Z,9.17
2023-11-17T10:10:43.478Z,12.40
2023-11-17T10:12:48.501Z,6.63
2023-11-17T10:14:54.573Z,8.70
2023-11-17T10:16:59.309Z,9.60
2023-11-17T10:19:03.225Z,6.73
2023-11-17T10:21:06.765Z,6.70
2023-11-17T10:23:08.938Z,7.50
2023-11-17T10:25:15.001Z,9.37
2023-11-17T10:27:21.146Z,5.97
2023-11-17T10:29:25.853Z,7.40
2023-11-17T10:31:33.212Z,5.47
2023-11-17T10:33:41.271Z,6.97
2023-11-17T10:35:45.145Z,5.73
2023-11-17T10:37:48.423Z,6.60
2023-11-17T10:40:00.641Z,5.73
2023-11-17T10:42:18.562Z,5.47
2023-11-17T10:44:34.408Z,6.03
2023-11-17T10:46:42.138Z,5.63
2023-11-17T10:48:45.393Z,4.67
2023-11-17T10:50:48.161Z,6.67
2023-11-17T10:52:50.004Z,3.53
2023-11-17T10:54:53.716Z,4.47
2023-11-17T10:57:11.497Z,4.13
2023-11-17T10:59:17.281Z,4.57
2023-11-17T11:01:21.803Z,5.30
2023-11-17T11:03:30.304Z,4.33
2023-11-17T11:05:32.901Z,3.70
2023-11-17T11:07:44.351Z,7.63
2023-11-17T11:09:47.292Z,3.57
2023-11-17T11:11:51.523Z,6.47
2023-11-17T11:13:58.314Z,4.43
2023-11-17T11:16:06.599Z,4.40
2023-11-17T11:18:16.260Z,5.20
2023-11-17T11:20:23.801Z,8.20
2023-11-17T11:22:29.239Z,5.33
2023-11-17T11:24:37.564Z,6.70
2023-11-17T11:26:42.561Z,3.73
2023-11-17T11:28:46.410Z,3.37
2023-11-17T11:30:50.803Z,2.57
2023-11-17T11:32:54.096Z,2.47
2023-11-17T11:34:58.322Z,2.33
2023-11-17T11:37:04.328Z,3.60
2023-11-17T11:39:07.720Z,2.80
2023-11-17T11:41:13.245Z,3.60
2023-11-17T11:43:16.904Z,3.43
2023-11-17T11:45:20.197Z,7.27
2023-11-17T11:47:23.500Z,5.23
2023-11-17T11:49:26.485Z,3.80
2023-11-17T11:51:31.530Z,3.70
2023-11-17T11:53:37.682Z,2.83
2023-11-17T11:55:40.544Z,3.23
2023-11-17T11:57:43.419Z,3.30
2023-11-17T11:59:46.900Z,3.00
2023-11-17T12:01:52.291Z,3.30
2023-11-17T12:04:00.899Z,4.63
2023-11-17T12:06:05.122Z,4.57
2023-11-17T12:08:23.585Z,3.63
2023-11-17T12:10:37.018Z,5.40
2023-11-17T12:12:42.487Z,3.30
2023-11-17T12:14:47.162Z,3.30
2023-11-17T12:16:56.431Z,3.90
2023-11-17T12:19:00.679Z,3.20
2023-11-17T12:21:22.388Z,4.33
2023-11-17T12:23:49.600Z,3.07
2023-11-17T12:25:53.887Z,4.50
2023-11-17T12:27:56.961Z,3.30
2023-11-17T12:30:01.949Z,3.47
2023-11-17T12:32:04.957Z,3.90
2023-11-17T12:34:08.014Z,3.63
2023-11-17T12:36:14.633Z,3.20
2023-11-17T12:38:17.792Z,4.93
2023-11-17T12:40:21.526Z,4.57
2023-11-17T12:42:25.756Z,5.90
2023-11-17T12:44:29.381Z,3.50
2023-11-17T12:46:33.637Z,3.37
2023-11-17T12:48:39.757Z,5.00
2023-11-17T12:50:42.876Z,4.80
2023-11-17T12:53:08.066Z,4.13
2023-11-17T12:55:12.375Z,3.73
2023-11-17T12:57:16.215Z,5.20
2023-11-17T12:59:27.655Z,3.33
2023-11-17T13:01:31.819Z,4.47
2023-11-17T13:03:33.845Z,4.57
2023-11-17T13:05:36.726Z,4.60
2023-11-17T13:07:38.653Z,5.63
2023-11-17T13:09:42.427Z,6.77
2023-11-17T13:11:47.714Z,7.10
2023-11-17T13:13:51.319Z,5.47
2023-11-17T13:15:54.427Z,4.80
2023-11-17T13:17:58.332Z,4.90
2023-11-17T13:20:00.285Z,6.63
2023-11-17T13:22:06.185Z,7.27
2023-11-17T13:24:09.479Z,5.80
2023-11-17T13:26:15.914Z,4.40
2023-11-17T13:28:17.771Z,4.60
2023-11-17T13:30:22.472Z,4.70
2023-11-17T13:32:25.714Z,3.60
2023-11-17T13:34:31.384Z,5.40
2023-11-17T13:36:36.433Z,6.17
2023-11-17T13:38:57.358Z,5.97
2023-11-17T13:41:00.284Z,4.80
2023-11-17T13:43:06.804Z,5.27
2023-11-17T13:45:12.159Z,5.23
2023-11-17T13:47:15.160Z,4.13
2023-11-17T13:49:21.083Z,6.47
2023-11-17T13:51:22.936Z,5.40
2023-11-17T13:53:29.264Z,6.50
2023-11-17T13:55:33.305Z,7.37
2023-11-17T13:57:35.432Z,5.57
2023-11-17T13:59:38.270Z,5.40
2023-11-17T14:01:40.277Z,5.57
2023-11-17T14:03:43.600Z,6.73
2023-11-17T14:05:47.816Z,5.53
2023-11-17T14:07:50.642Z,4.67
2023-11-17T14:09:54.137Z,5.10
2023-11-17T14:11:58.563Z,9.30
2023-11-17T14:14:05.728Z,7.77
2023-11-17T14:16:10.255Z,6.90
2023-11-17T14:18:15.844Z,11.37
2023-11-17T14:20:22.804Z,8.30
2023-11-17T14:22:28.053Z,7.50
2023-11-17T14:24:30.814Z,6.87
2023-11-17T14:26:34.267Z,7.83
2023-11-17T14:28:38.541Z,10.87
2023-11-17T14:30:42.267Z,8.80
2023-11-17T14:32:45.181Z,8.67
2023-11-17T14:34:50.224Z,10.27
2023-11-17T14:36:54.281Z,9.97
2023-11-17T14:38:58.799Z,11.60
2023-11-17T14:41:05.763Z,9.83
2023-11-17T14:43:08.598Z,9.67
2023-11-17T14:45:15.782Z,11.37
2023-11-17T14:47:20.053Z,10.70
2023-11-17T14:49:23.281Z,7.90
2023-11-17T14:51:25.236Z,12.77
2023-11-17T14:53:29.223Z,14.07
2023-11-17T14:55:34.924Z,11.83
2023-11-17T14:57:37.815Z,9.07
2023-11-17T14:59:42.477Z,9.20
2023-11-17T15:01:45.377Z,12.73
2023-11-17T15:03:48.191Z,11.27
2023-11-17T15:05:50.084Z,9.10
2023-11-17T15:07:52.864Z,14.73
2023-11-17T15:09:55.816Z,12.70
2023-11-17T15:12:00.239Z,12.13
2023-11-17T15:14:05.331Z,9.23
2023-11-17T15:16:10.895Z,11.80
2023-11-17T15:18:14.413Z,11.03
2023-11-17T15:20:19.008Z,10.20
2023-11-17T15:22:22.235Z,10.30
2023-11-17T15:24:27.945Z,13.63
2023-11-17T15:26:31.142Z,13.50
2023-11-17T15:28:37.211Z,13.00
2023-11-17T15:30:47.107Z,10.70
2023-11-17T15:32:50.231Z,12.10
2023-11-17T15:34:54.806Z,9.40
2023-11-17T15:36:58.607Z,11.13
2023-11-17T15:39:01.822Z,15.57
2023-11-17T15:41:05.120Z,15.27
2023-11-17T15:43:08.437Z,13.00
2023-11-17T15:45:14.656Z,11.33
2023-11-17T15:47:17.367Z,19.70
2023-11-17T15:49:20.348Z,14.27
2023-11-17T15:51:22.920Z,12.87
2023-11-17T15:53:25.675Z,14.90
2023-11-17T15:55:28.715Z,13.70
2023-11-17T15:57:30.517Z,20.07
2023-11-17T15:59:33.262Z,19.77
2023-11-17T16:01:39.638Z,15.70
2023-11-17T16:03:43.290Z,20.53
2023-11-17T16:05:46.032Z,20.97
2023-11-17T16:07:51.087Z,22.47
2023-11-17T16:09:54.936Z,20.07
2023-11-17T16:11:59.830Z,22.63
2023-11-17T16:14:06.987Z,22.57
2023-11-17T16:16:14.214Z,26.53
2023-11-17T16:18:19.223Z,28.57
2023-11-17T16:20:24.874Z,28.93
2023-11-17T16:22:26.773Z,26.50
2023-11-17T16:24:30.044Z,28.63
2023-11-17T16:26:32.883Z,26.70
2023-11-17T16:28:35.629Z,31.17
2023-11-17T16:30:40.537Z,30.47
2023-11-17T16:32:47.931Z,31.27
2023-11-17T16:34:52.255Z,28.10
2023-11-17T16:36:55.613Z,24.47
2023-11-17T16:38:58.686Z,21.10
2023-11-17T16:41:01.573Z,18.97
2023-11-17T16:43:08.685Z,24.23
2023-11-17T16:45:10.751Z,23.73
2023-11-17T16:47:14.928Z,20.93
2023-11-17T16:49:19.639Z,24.10
2023-11-17T16:51:23.741Z,23.60
2023-11-17T16:53:26.536Z,19.90
2023-11-17T16:55:33.998Z,18.97
2023-11-17T16:57:35.827Z,25.23
2023-11-17T16:59:41.647Z,23.37
2023-11-17T17:01:44.429Z,22.60
2023-11-17T17:03:47.287Z,20.73
2023-11-17T17:05:51.006Z,19.47
2023-11-17T17:07:55.113Z,20.10
2023-11-17T17:09:59.143Z,17.97
2023-11-17T17:12:00.961Z,15.97
2023-11-17T17:14:16.662Z,22.77
2023-11-17T17:16:22.977Z,22.20
2023-11-17T17:18:26.247Z,23.30
2023-11-17T17:20:28.158Z,28.93
2023-11-17T17:22:31.083Z,25.93
2023-11-17T17:24:37.544Z,25.67
2023-11-17T17:26:40.382Z,18.97
2023-11-17T17:28:43.133Z,21.03
2023-11-17T17:30:46.013Z,21.27
2023-11-17T17:32:48.675Z,23.47
2023-11-17T17:34:51.682Z,23.77
2023-11-17T17:36:54.600Z,25.27
2023-11-17T17:38:57.311Z,26.57
2023-11-17T17:41:01.597Z,28.53
2023-11-17T17:43:06.313Z,30.80
2023-11-17T17:45:10.899Z,31.93
2023-11-17T17:47:14.537Z,32.13
2023-11-17T17:49:17.837Z,28.30
2023-11-17T17:51:20.827Z,27.60
2023-11-17T17:53:23.658Z,33.77
2023-11-17T17:55:26.922Z,32.63
2023-11-17T17:57:31.383Z,32.67
2023-11-17T17:59:34.333Z,27.37
2023-11-17T18:01:37.659Z,36.67
2023-11-17T18:03:40.580Z,30.83
2023-11-17T18:05:43.355Z,35.87
2023-11-17T18:07:47.545Z,29.20
2023-11-17T18:09:50.334Z,31.57
2023-11-17T18:11:53.670Z,31.60
2023-11-17T18:13:59.531Z,33.63
2023-11-17T18:16:02.581Z,34.30
2023-11-17T18:18:07.174Z,34.40
2023-11-17T18:20:13.947Z,39.43
2023-11-17T18:22:16.938Z,35.27
2023-11-17T18:24:20.472Z,32.60
2023-11-17T18:26:26.726Z,32.63
2023-11-17T18:28:31.346Z,35.07
2023-11-17T18:30:36.546Z,37.10
2023-11-17T18:32:41.877Z,32.70
2023-11-17T18:34:44.713Z,29.93
2023-11-17T18:36:49.273Z,33.50
2023-11-17T18:38:53.052Z,33.90
2023-11-17T18:40:54.886Z,31.87
2023-11-17T18:42:58.423Z,29.17
2023-11-17T18:45:01.703Z,57.43
2023-11-17T18:47:06.762Z,54.10
2023-11-17T18:49:11.126Z,47.03
2023-11-17T18:51:13.295Z,42.40
2023-11-17T18:53:16.083Z,37.67
2023-11-17T18:55:19.501Z,46.97
2023-11-17T18:57:22.403Z,46.63
2023-11-17T18:59:25.643Z,41.40
2023-11-17T19:01:28.878Z,40.67
2023-11-17T19:03:33.241Z,39.67
2023-11-17T19:05:36.090Z,36.53
2023-11-17T19:07:39.382Z,38.20
2023-11-17T19:09:42.409Z,40.23
2023-11-17T19:11:47.015Z,41.47
2023-11-17T19:13:50.960Z,36.40
2023-11-17T19:15:53.895Z,37.43
2023-11-17T19:17:59.216Z,34.50
2023-11-17T19:20:04.166Z,38.00
2023-11-17T19:22:07.942Z,38.33
2023-11-17T19:24:11.647Z,38.30
2023-11-17T19:26:13.781Z,37.23
2023-11-17T19:28:16.556Z,37.80
2023-11-17T19:30:19.834Z,38.43
2023-11-17T19:32:24.100Z,43.97
2023-11-17T19:34:28.242Z,43.10
2023-11-17T19:36:34.531Z,41.53
2023-11-17T19:38:37.296Z,40.57
2023-11-17T19:40:42.196Z,36.77
2023-11-17T19:42:46.000Z,40.03
2023-11-17T19:44:51.589Z,38.77
2023-11-17T19:46:55.007Z,36.67
2023-11-17T19:48:58.110Z,45.00
2023-11-17T19:51:00.916Z,41.40
2023-11-17T19:53:05.657Z,35.13
2023-11-17T19:55:11.709Z,40.33
2023-11-17T19:57:13.642Z,41.33
2023-11-17T19:59:16.914Z,38.27
2023-11-17T20:01:19.896Z,39.20
2023-11-17T20:03:22.812Z,35.97
2023-11-17T20:05:29.014Z,39.23
2023-11-17T20:07:32.086Z,36.00
2023-11-17T20:09:42.425Z,37.97
2023-11-17T20:11:46.904Z,39.93
2023-11-17T20:13:50.190Z,43.87
2023-11-17T20:15:53.014Z,41.87
2023-11-17T20:17:57.564Z,41.00
2023-11-17T20:19:59.709Z,40.80
2023-11-17T20:22:02.545Z,41.47
2023-11-17T20:24:05.598Z,43.20
2023-11-17T20:26:10.483Z,43.90
2023-11-17T20:28:13.291Z,43.63
2023-11-17T20:30:17.386Z,46.20
2023-11-17T20:32:20.161Z,44.33
2023-11-17T20:34:22.114Z,48.60
2023-11-17T20:36:25.985Z,48.57
2023-11-17T20:38:28.816Z,44.83
2023-11-17T20:40:31.692Z,42.53
2023-11-17T20:42:34.961Z,41.30
2023-11-17T20:44:42.546Z,48.27
2023-11-17T20:46:45.474Z,51.17
2023-11-17T20:48:47.342Z,52.93
2023-11-17T20:50:56.809Z,53.33
2023-11-17T20:53:00.149Z,75.60
2023-11-17T20:55:02.093Z,56.97
2023-11-17T20:57:09.374Z,57.60
2023-11-17T20:59:13.958Z,55.47
2023-11-17T21:01:18.787Z,64.23
2023-11-17T21:03:22.769Z,67.13
2023-11-17T21:05:26.164Z,64.60
2023-11-17T21:07:28.968Z,60.67
2023-11-17T21:09:31.723Z,57.40
2023-11-17T21:11:34.743Z,64.37
2023-11-17T21:13:37.567Z,112.87
2023-11-17T21:15:42.061Z,79.53
2023-11-17T21:17:45.346Z,72.20
2023-11-17T21:19:48.324Z,61.53
2023-11-17T21:21:51.056Z,72.10
2023-11-17T21:23:54.487Z,70.40
2023-11-17T21:25:57.281Z,67.90
2023-11-17T21:28:00.505Z,64.10
2023-11-17T21:30:03.340Z,61.77
2023-11-17T21:32:08.536Z,68.47
2023-11-17T21:34:11.383Z,61.13
2023-11-17T21:36:20.406Z,64.33
2023-11-17T21:38:28.845Z,61.87
2023-11-17T21:40:35.963Z,60.77
2023-11-17T21:42:39.828Z,58.40
2023-11-17T21:44:42.721Z,60.97
2023-11-17T21:46:45.351Z,63.67
2023-11-17T21:48:49.625Z,61.93
2023-11-17T21:50:52.435Z,59.50
2023-11-17T21:52:56.341Z,60.07
2023-11-17T21:54:59.239Z,70.40
2023-11-17T21:57:04.094Z,58.50
2023-11-17T21:59:06.888Z,56.13
2023-11-17T22:01:09.749Z,62.60
2023-11-17T22:03:13.672Z,63.60
2023-11-17T22:05:18.607Z,59.80
2023-11-17T22:07:21.388Z,59.63
2023-11-17T22:09:24.890Z,61.43
2023-11-17T22:11:27.682Z,61.37
2023-11-17T22:13:30.812Z,61.27
2023-11-17T22:15:33.774Z,63.80
2023-11-17T22:17:37.188Z,57.20
2023-11-17T22:19:40.104Z,60.77
2023-11-17T22:21:44.175Z,59.43
2023-11-17T22:23:47.051Z,65.83
2023-11-17T22:25:50.346Z,63.83
2023-11-17T22:27:55.945Z,60.87
2023-11-17T22:29:58.818Z,62.30
2023-11-17T22:32:00.693Z,68.17
2023-11-17T22:34:03.993Z,64.03
2023-11-17T22:36:07.525Z,66.93
2023-11-17T22:38:12.196Z,59.17
2023-11-17T22:40:15.136Z,68.17
2023-11-17T22:42:19.635Z,81.00
2023-11-17T22:44:22.366Z,79.23
2023-11-17T22:46:25.275Z,71.43
2023-11-17T22:48:28.530Z,63.50
2023-11-17T22:50:31.777Z,61.47
2023-11-17T22:52:34.676Z,59.80
2023-11-17T22:54:38.829Z,62.33
2023-11-17T22:56:42.290Z,60.87
2023-11-17T22:58:46.263Z,69.97
2023-11-17T23:00:49.776Z,61.37
2023-11-17T23:02:52.766Z,57.60
2023-11-17T23:04:57.433Z,62.30
2023-11-17T23:07:00.384Z,62.23
2023-11-17T23:09:06.202Z,69.80
2023-11-17T23:11:10.701Z,65.20
2023-11-17T23:13:15.016Z,61.93
2023-11-17T23:15:18.529Z,57.03
2023-11-17T23:17:21.582Z,66.23
2023-11-17T23:19:24.444Z,58.17
2023-11-17T23:21:28.986Z,68.33
2023-11-17T23:23:32.119Z,61.00
2023-11-17T23:25:37.638Z,64.93
2023-11-17T23:27:42.580Z,65.13
2023-11-17T23:29:45.201Z,68.77
2023-11-17T23:31:50.181Z,69.57
2023-11-17T23:33:52.981Z,68.60
2023-11-17T23:35:55.703Z,66.43
2023-11-17T23:38:00.003Z,70.53
2023-11-17T23:40:07.854Z,69.20
2023-11-17T23:42:10.608Z,65.10
2023-11-17T23:44:14.702Z,67.17
2023-11-17T23:46:17.487Z,70.80
2023-11-17T23:48:20.296Z,70.03
2023-11-17T23:50:22.061Z,63.57
2023-11-17T23:52:26.246Z,78.97
2023-11-17T23:54:29.413Z,78.30
2023-11-17T23:56:32.201Z,78.83
2023-11-17T23:58:35.517Z,68.37
